Latest Weather Observations for Paraburdoo

IDW60801

Issued at 4:35 pm WST Tuesday 2 September 2014 (issued every 30 minutes, with the page automatically refreshed every 10 minutes)

About weather observations | Map of weather stations | Latest weather observations for WA | Other Formats
Station Details ID: 007185 Name: PARABURDOO AERO Lat: -23.17 Lon: 117.75 Height: 423.7 m
Data from the previous 72 hours. | See also: Recent months at Paraburdoo
Date/Time
WST
Temp
°C
App
Temp
°C
Dew
Point
Rel
Hum
%
Delta-T
°C
Wind Press
QNH
hPa
Press
MSL
hPa
Rain
since 9 am
mm
Dir
 
Spd
km/h
Gust
km/h
Spd
kts
Gust
kts
02/04:30pm 34.6 28.3 -10.5 5 19.1 NNW 17 20 9 11 1015.2 1013.3 0.0
02/04:00pm 34.4 28.1 -10.6 5 19.0 NNW 17 28 9 15 1015.0 1013.1 0.0
02/03:30pm 35.4 29.1 -9.9 5 19.5 N 17 26 9 14 1014.9 1013.0 0.0
02/03:00pm 34.5 29.9 -8.2 6 18.7 NNW 9 15 5 8 1015.2 1013.3 0.0
02/02:30pm 34.1 27.4 -10.8 5 18.8 N 19 33 10 18 1015.6 1013.7 0.0
02/02:00pm 34.4 27.5 -10.6 5 19.0 N 20 28 11 15 1016.1 1014.1 0.0
02/01:30pm 32.6 28.0 -7.6 7 17.6 WNW 9 20 5 11 1016.4 1014.5 0.0
02/01:00pm 31.4 26.1 -6.8 8 16.7 S 13 19 7 10 1016.9 1015.0 0.0
02/12:30pm 31.5 26.6 -6.7 8 16.8 WSW 11 20 6 11 1017.5 1015.6 0.0
02/12:00pm 30.6 25.4 -5.8 9 16.1 W 13 17 7 9 1018.1 1016.2 0.0
02/11:30am 29.9 25.8 -6.4 9 15.8 SW 7 17 4 9 1018.8 1016.9 0.0
02/11:00am 29.0 25.0 -5.7 10 15.2 W 7 11 4 6 1019.2 1017.3 0.0
02/10:30am 28.4 24.7 -4.9 11 14.7 SSE 6 9 3 5 1019.7 1017.8 0.0
02/10:00am 27.0 23.0 -5.9 11 14.1 ENE 7 13 4 7 1020.1 1018.2 0.0
02/09:30am 26.4 22.9 -6.4 11 13.9 N 4 7 2 4 1020.1 1018.2 0.0
02/09:00am 25.2 21.3 -5.1 13 12.9 NNE 7 11 4 6 1020.2 1018.3 0.0
02/08:30am 22.7 17.8 -7.1 13 12.0 ENE 11 13 6 7 1019.9 - 0.0
02/08:00am 20.3 15.4 -7.1 15 10.8 ENE 11 15 6 8 1019.5 - 0.0
02/07:30am 17.4 12.5 -7.1 18 9.3 ENE 11 13 6 7 1019.3 - 0.0
02/07:00am 14.5 10.4 -6.9 22 7.9 ENE 7 7 4 4 1018.9 - 0.0
02/06:30am 12.7 7.4 -6.8 25 7.1 ENE 13 15 7 8 1018.6 - 0.0
02/06:00am 10.8 6.6 -7.9 26 6.5 E 7 9 4 5 1018.4 1016.5 0.0
02/05:30am 11.4 7.2 -7.9 25 6.7 ENE 7 9 4 5 1018.1 - 0.0
02/05:00am 12.9 8.0 -7.2 24 7.3 NE 11 13 6 7 1017.8 - 0.0
02/04:30am 12.8 8.3 -7.2 24 7.2 NE 9 9 5 5 1017.4 - 0.0
02/04:00am 13.2 8.3 -7.4 23 7.4 NE 11 13 6 7 1017.2 - 0.0
02/03:30am 14.1 8.8 -7.3 22 7.8 NE 13 13 7 7 1017.2 - 0.0
02/03:00am 14.4 8.7 -7.6 21 8.0 NE 15 19 8 10 1017.3 1015.4 0.0
02/02:30am 14.6 9.3 -7.4 21 8.1 NE 13 15 7 8 1017.5 - 0.0
02/02:00am 15.1 10.2 -7.0 21 8.2 NE 11 13 6 7 1017.7 - 0.0
02/01:30am 15.7 11.7 -7.8 19 8.7 E 6 7 3 4 1018.0 - 0.0
02/01:00am 16.1 11.5 -7.5 19 8.8 ESE 9 11 5 6 1017.9 - 0.0
02/12:30am 16.2 13.2 -8.8 17 9.1 CALM 0 0 0 0 1018.1 - 0.0
02/12:00am 16.9 12.5 -9.9 15 9.6 NNE 7 7 4 4 1018.1 1016.2 0.0
 
Date/Time
WST
Temp
°C
App
Temp
°C
Dew
Point
Rel
Hum
%
Delta-T
°C
Wind Press
QNH
hPa
Press
MSL
hPa
Rain
since 9 am
mm
Dir
 
Spd
km/h
Gust
km/h
Spd
kts
Gust
kts
01/11:30pm 20.3 15.7 -8.0 14 10.9 W 9 13 5 7 1018.0 - 0.0
01/11:00pm 21.4 16.7 -9.1 12 11.7 WSW 9 11 5 6 1018.1 - 0.0
01/10:30pm 21.7 17.3 -10.0 11 11.9 SSW 7 20 4 11 1018.3 - 0.0
01/10:00pm 20.6 16.2 -9.8 12 11.4 SE 7 9 4 5 1018.0 - 0.0
01/09:30pm 20.7 16.3 -10.8 11 11.6 SSE 7 9 4 5 1017.7 - 0.0
01/09:00pm 22.8 18.4 -10.4 10 12.5 SSW 7 9 4 5 1017.5 1015.6 0.0
01/08:30pm 23.5 19.1 -9.8 10 12.8 N 7 11 4 6 1017.0 - 0.0
01/08:00pm 24.2 18.6 -10.6 9 13.3 NNE 13 15 7 8 1016.7 - 0.0
01/07:30pm 25.1 20.0 -10.0 9 13.7 NNE 11 13 6 7 1016.3 - 0.0
01/07:00pm 27.3 22.0 -11.5 7 15.1 N 11 13 6 7 1015.8 - 0.0
01/06:30pm 29.7 23.3 -11.7 6 16.4 N 17 20 9 11 1015.4 - 0.0
01/06:00pm 30.9 25.3 -10.8 6 17.0 N 13 17 7 9 1015.0 1013.1 0.0
01/05:30pm 32.4 26.4 -12.0 5 18.0 NNW 15 20 8 11 1014.8 - 0.0
01/05:00pm 33.4 27.4 -11.3 5 18.5 NNW 15 22 8 12 1014.4 - 0.0
01/04:30pm 33.4 28.2 -11.3 5 18.5 NNW 11 15 6 8 1014.3 - 0.0
01/04:00pm 33.5 27.1 -11.2 5 18.5 NNE 17 30 9 16 1014.2 - 0.0
01/03:30pm 34.1 27.4 -10.8 5 18.8 NNW 19 24 10 13 1014.3 - 0.0
01/03:00pm 33.5 27.3 -9.0 6 18.3 E 17 24 9 13 1014.6 1012.6 0.0
01/02:30pm 32.6 27.1 -9.6 6 17.8 N 13 19 7 10 1014.9 - 0.0
01/02:00pm 33.1 26.5 -9.2 6 18.1 NNE 19 24 10 13 1015.2 - 0.0
01/01:30pm 32.1 27.3 -6.3 8 17.1 E 11 19 6 10 1015.7 - 0.0
01/01:00pm 30.7 25.8 -7.3 8 16.4 E 11 19 6 10 1016.4 - 0.0
01/12:30pm 31.0 26.1 -7.1 8 16.6 ENE 11 19 6 10 1016.8 - 0.0
01/12:00pm 30.9 25.8 -5.6 9 16.2 E 13 20 7 11 1017.2 1015.3 0.0
01/11:30am 30.5 25.2 -3.3 11 15.6 E 15 20 8 11 1017.7 - 0.0
01/11:00am 29.6 24.4 -2.8 12 15.0 E 15 26 8 14 1018.4 - 0.0
01/10:30am 28.6 22.7 -2.5 13 14.4 E 19 22 10 12 1018.9 - 0.0
01/10:00am 27.3 21.5 -1.6 15 13.4 E 19 30 10 16 1019.1 - 0.0
01/09:30am 26.6 20.8 -1.3 16 13.0 E 19 26 10 14 1019.1 - 0.0
01/09:00am 25.3 19.4 -0.7 18 12.1 E 20 26 11 14 1019.2 1017.3 0.0
01/08:30am 23.4 20.7 -2.2 18 11.4 ENE 2 6 1 3 1019.1 - 0.0
01/08:00am 20.3 17.2 -2.7 21 9.9 NE 4 9 2 5 1018.5 - 0.0
01/07:30am 17.2 13.5 -4.1 23 8.6 ENE 6 7 3 4 1018.3 - 0.0
01/07:00am 13.3 9.5 -5.8 26 7.2 NE 6 7 3 4 1018.3 - 0.0
01/06:30am 12.8 6.9 -5.2 28 6.8 NNE 17 20 9 11 1017.6 - 0.0
01/06:00am 11.7 6.9 -5.7 29 6.4 NE 11 13 6 7 1017.4 1015.5 0.0
01/05:30am 11.8 7.9 -6.1 28 6.5 ENE 6 9 3 5 1017.1 - 0.0
01/05:00am 13.1 8.4 -5.4 27 7.0 NE 11 11 6 6 1016.9 - 0.0
01/04:30am 14.4 9.3 -4.8 26 7.4 NE 13 15 7 8 1016.6 - 0.0
01/04:00am 12.9 8.1 -5.6 27 6.9 NE 11 13 6 7 1016.6 - 0.0
01/03:30am 13.0 9.9 -6.0 26 7.1 NE 2 9 1 5 1016.8 - 0.0
01/03:00am 13.8 9.8 -5.9 25 7.4 ENE 7 9 4 5 1017.0 1015.1 0.0
01/02:30am 14.6 10.3 -5.2 25 7.6 ENE 9 11 5 6 1017.2 - 0.0
01/02:00am 14.7 9.9 -5.6 24 7.8 E 11 13 6 7 1017.2 - 0.0
01/01:30am 14.2 10.7 -6.1 24 7.6 NE 4 13 2 7 1017.2 - 0.0
01/01:00am 15.3 11.2 -6.3 22 8.2 N 7 9 4 5 1017.2 - 0.0
01/12:30am 15.1 11.7 -5.3 24 7.9 ESE 4 9 2 5 1017.0 - 0.0
01/12:00am 16.9 13.0 -4.9 22 8.6 ENE 7 20 4 11 1017.0 1015.1 0.0
 
Date/Time
WST
Temp
°C
App
Temp
°C
Dew
Point
Rel
Hum
%
Delta-T
°C
Wind Press
QNH
hPa
Press
MSL
hPa
Rain
since 9 am
mm
Dir
 
Spd
km/h
Gust
km/h
Spd
kts
Gust
kts
31/11:30pm 16.5 11.7 -5.9 21 8.7 ENE 11 13 6 7 1016.8 - 0.0
31/11:00pm 17.2 13.1 -6.6 19 9.1 E 7 9 4 5 1016.8 - 0.0
31/10:30pm 18.4 14.6 -5.6 19 9.5 NE 6 9 3 5 1017.0 - 0.0
31/10:00pm 19.4 15.4 -5.5 18 10.0 N 7 9 4 5 1017.1 - 0.0
31/09:30pm 21.2 17.2 -5.6 16 11.0 NE 7 11 4 6 1017.3 - 0.0
31/09:00pm 23.3 19.5 -5.7 14 12.1 W 6 9 3 5 1016.9 1015.5 0.0
31/08:30pm 25.5 21.2 -4.9 13 13.1 SW 9 13 5 7 1016.6 - 0.0
31/08:00pm 25.6 21.2 -5.9 12 13.3 SW 9 11 5 6 1016.3 - 0.0
31/07:30pm 26.6 21.8 -6.2 11 13.9 S 11 13 6 7 1015.8 - 0.0
31/07:00pm 27.1 21.8 -7.1 10 14.4 SSW 13 15 7 8 1015.4 - 0.0
31/06:30pm 27.5 22.0 -9.7 8 15.0 W 13 17 7 9 1014.9 - 0.0
31/06:00pm 29.4 23.9 -9.9 7 16.0 W 13 17 7 9 1014.5 1013.1 0.0
31/05:30pm 31.0 25.9 -8.8 7 16.8 W 11 20 6 11 1014.4 - 0.0
31/05:00pm 31.7 26.2 -10.2 6 17.4 WNW 13 19 7 10 1014.3 - 0.0
31/04:30pm 32.4 28.0 -9.7 6 17.7 N 7 13 4 7 1014.3 - 0.0
31/04:00pm 32.3 27.2 -9.8 6 17.7 W 11 17 6 9 1014.4 - 0.0
31/03:30pm 31.4 26.8 -8.5 7 17.0 WSW 9 15 5 8 1014.3 - 0.0
31/03:00pm 31.2 26.9 -8.6 7 16.9 NNE 7 15 4 8 1014.5 1013.1 0.0
31/02:30pm 31.3 25.1 -8.6 7 16.9 NE 17 33 9 18 1014.8 - 0.0
31/02:00pm 30.9 25.8 -8.9 7 16.8 N 11 20 6 11 1015.2 - 0.0
31/01:30pm 30.4 26.4 -7.5 8 16.3 NE 6 15 3 8 1015.7 - 0.0
31/01:00pm 30.3 25.2 -9.3 7 16.5 NNW 11 19 6 10 1016.3 - 0.0
31/12:30pm 31.1 26.2 -7.0 8 16.6 SE 11 20 6 11 1016.7 - 0.0
31/12:00pm 29.2 24.2 -4.3 11 15.0 E 13 22 7 12 1017.3 1015.9 0.0
31/11:30am 28.3 22.6 -3.8 12 14.5 ESE 17 28 9 15 1017.7 - 0.0
31/11:00am 28.6 22.9 -3.6 12 14.6 SE 17 24 9 13 1018.4 - 0.0
31/10:30am 27.4 21.2 -3.4 13 13.9 E 20 28 11 15 1019.0 - 0.0
31/10:00am 26.6 20.5 -2.1 15 13.1 ESE 20 30 11 16 1019.2 - 0.0
31/09:30am 25.7 19.0 -1.2 17 12.4 ESE 24 30 13 16 1019.5 - 0.0
31/09:00am 25.0 19.0 -1.7 17 12.1 E 20 28 11 15 1019.4 1018.0 0.0
31/08:30am 23.3 19.8 -3.1 17 11.5 NE 6 9 3 5 1019.5 - 0.0
31/08:00am 19.7 16.0 -4.5 19 10.0 NE 6 7 3 4 1019.3 - 0.0
31/07:30am 15.5 12.1 -5.5 23 8.1 NNE 4 6 2 3 1019.0 - 0.0
31/07:00am 11.8 7.7 -6.6 27 6.6 NE 7 9 4 5 1018.8 - 0.0
31/06:30am 9.5 5.3 -7.6 29 5.9 ENE 7 9 4 5 1018.3 - 0.0
31/06:00am 10.3 5.7 -7.4 28 6.1 ENE 9 11 5 6 1018.0 1016.7 0.0
31/05:30am 10.8 6.6 -7.4 27 6.4 ENE 7 9 4 5 1017.8 - 0.0
31/05:00am 11.2 6.7 -7.1 27 6.5 ENE 9 11 5 6 1017.6 - 0.0
31/04:30am 11.0 6.5 -7.3 27 6.4 E 9 11 5 6 1017.3 - 0.0
31/04:00am 11.4 7.4 -7.4 26 6.6 ENE 6 9 3 5 1017.1 - 0.0
31/03:30am 13.3 8.5 -6.3 25 7.3 NE 11 15 6 8 1017.1 - 0.0
31/03:00am 12.8 7.9 -6.7 25 7.1 NE 11 13 6 7 1017.0 1015.6 0.0
31/02:30am 12.6 8.4 -7.4 24 7.2 ENE 7 9 4 5 1016.9 - 0.0
31/02:00am 13.2 8.7 -6.9 24 7.3 ENE 9 11 5 6 1017.0 - 0.0
31/01:30am 13.6 9.1 -6.6 24 7.5 ENE 9 11 5 6 1017.2 - 0.0
31/01:00am 13.7 10.5 -7.6 22 7.7 NW 2 6 1 3 1017.4 - 0.0
31/12:30am 15.8 10.6 -6.5 21 8.5 NNE 13 15 7 8 1017.5 - 0.0
31/12:00am 15.5 11.0 -7.3 20 8.5 NE 9 11 5 6 1017.6 1016.3 0.0
 
Date/Time
WST
Temp
°C
App
Temp
°C
Dew
Point
Rel
Hum
%
Delta-T
°C
Wind Press
QNH
hPa
Press
MSL
hPa
Rain
since 9 am
mm
Dir
 
Spd
km/h
Gust
km/h
Spd
kts
Gust
kts
30/11:30pm 15.6 11.4 -7.2 20 8.5 ESE 7 9 4 5 1017.6 - 0.0
30/11:00pm 17.0 12.1 -6.8 19 9.1 NE 11 15 6 8 1017.6 - 0.0
30/10:30pm 17.4 12.8 -7.9 17 9.5 N 9 13 5 7 1017.7 - 0.0
30/10:00pm 18.0 13.1 -6.6 18 9.5 NNE 11 13 6 7 1017.8 - 0.0
30/09:30pm 18.5 15.6 -7.8 16 10.0 CALM 0 0 0 0 1018.1 - 0.0
30/09:00pm 19.8 16.9 -7.5 15 10.6 CALM 0 0 0 0 1018.2 1016.9 0.0
30/08:30pm 20.7 17.4 -8.7 13 11.2 W 2 6 1 3 1018.1 - 0.0
30/08:00pm 23.2 19.1 -6.7 13 12.2 S 7 9 4 5 1018.0 - 0.0
30/07:30pm 23.9 19.7 -7.2 12 12.7 S 7 9 4 5 1017.7 - 0.0
30/07:00pm 25.3 20.8 -7.2 11 13.4 SW 9 11 5 6 1017.4 - 0.0
30/06:30pm 27.4 22.4 -8.2 9 14.7 SSW 11 13 6 7 1017.2 - 0.0
30/06:00pm 28.7 24.2 -7.3 9 15.3 SW 9 13 5 7 1016.8 1015.4 0.0
30/05:30pm 30.1 25.1 -7.7 8 16.1 SW 11 17 6 9 1016.8 - 0.0
30/05:00pm 30.5 25.9 -7.4 8 16.3 W 9 17 5 9 1016.6 - 0.0

Other Formats:

Comma delimited format used in spreadsheet applications
http://www.bom.gov.au/fwo/IDW60801/IDW60801.94316.axf

JavaScript Object Notation format (JSON) in row-major order
http://www.bom.gov.au/fwo/IDW60801/IDW60801.94316.json